KHVR 050751Z 0508/0606 VRB06KT 2SM BR BKN003
TEMPO 0508/0512 1/2SM FZFG BKN003
FM051500 VRB06KT P6SM BKN009
FM060000 VRB06KT P6SM SCT009 OVC030
From batch tds/tafs/production/2024/2/5/h08_m00_tafs.cache.xml.gz
Issued (18 days ago)
Forecasts
0508/0515 VRB06KT 2SM BKN300

---
wx_string: BR
fcst_time_to: '2024-02-05T15:00:00Z'
sky_condition:
- sky_cover: BKN
  cloud_base_ft_agl: '300'
wind_speed_kt: '6'
fcst_time_from: '2024-02-05T08:00:00Z'
wind_dir_degrees: VRB
visibility_statute_mi: '2'

TEMPO 0508/0512 BKN300

---
wx_string: FZFG
fcst_time_to: '2024-02-05T12:00:00Z'
sky_condition:
- sky_cover: BKN
  cloud_base_ft_agl: '300'
fcst_time_from: '2024-02-05T08:00:00Z'
change_indicator: TEMPO
visibility_statute_mi: '0.5'

FM051500 VRB06KT 6+SM BKN900

---
fcst_time_to: '2024-02-06T00:00:00Z'
sky_condition:
- sky_cover: BKN
  cloud_base_ft_agl: '900'
wind_speed_kt: '6'
fcst_time_from: '2024-02-05T15:00:00Z'
change_indicator: FM
wind_dir_degrees: VRB
visibility_statute_mi: 6+

FM060000 VRB06KT 6+SM SCT900 OVC3000

---
fcst_time_to: '2024-02-06T06:00:00Z'
sky_condition:
- - sky_cover: SCT
    cloud_base_ft_agl: '900'
- - sky_cover: OVC
    cloud_base_ft_agl: '3000'
wind_speed_kt: '6'
fcst_time_from: '2024-02-06T00:00:00Z'
change_indicator: FM
wind_dir_degrees: VRB
visibility_statute_mi: 6+

talk